createdAt,value
2024-02-24T00:00:23.036Z,55.53
2024-02-24T00:03:11.347Z,46.33
2024-02-24T00:05:40.231Z,55.07
2024-02-24T00:08:09.098Z,43.63
2024-02-24T00:10:37.874Z,56.97
2024-02-24T00:13:09.147Z,55.90
2024-02-24T00:15:38.013Z,50.03
2024-02-24T00:18:06.821Z,60.77
2024-02-24T00:20:35.559Z,46.80
2024-02-24T00:23:03.968Z,49.13
2024-02-24T00:25:33.350Z,52.83
2024-02-24T00:28:01.711Z,51.93
2024-02-24T00:30:31.829Z,53.67
2024-02-24T00:33:00.260Z,46.23
2024-02-24T00:35:30.021Z,54.73
2024-02-24T00:37:58.767Z,57.93
2024-02-24T00:40:27.383Z,52.93
2024-02-24T00:42:55.776Z,48.33
2024-02-24T00:45:24.357Z,57.27
2024-02-24T00:47:54.139Z,57.77
2024-02-24T00:50:29.712Z,51.53
2024-02-24T00:52:58.186Z,56.53
2024-02-24T00:55:26.776Z,51.47
2024-02-24T00:57:55.161Z,53.30
2024-02-24T01:00:23.760Z,56.40
2024-02-24T01:02:54.212Z,61.67
2024-02-24T01:05:22.990Z,64.87
2024-02-24T01:07:51.620Z,58.27
2024-02-24T01:10:20.212Z,62.07
2024-02-24T01:12:48.642Z,62.00
2024-02-24T01:15:17.365Z,64.07
2024-02-24T01:17:45.889Z,66.27
2024-02-24T01:20:16.120Z,79.63
2024-02-24T01:22:46.527Z,80.43
2024-02-24T01:25:14.794Z,79.07
2024-02-24T01:27:43.701Z,94.57
2024-02-24T01:30:12.697Z,89.77
2024-02-24T01:32:41.277Z,91.77
2024-02-24T01:35:10.261Z,94.27
2024-02-24T01:37:40.459Z,96.67
2024-02-24T01:40:09.444Z,98.03
2024-02-24T01:42:43.189Z,98.43
2024-02-24T01:45:14.118Z,94.37
2024-02-24T01:47:43.261Z,114.47
2024-02-24T01:50:12.494Z,96.57
2024-02-24T01:52:43.257Z,97.80
2024-02-24T01:55:12.469Z,99.47
2024-02-24T01:57:44.074Z,103.20
2024-02-24T02:00:13.745Z,106.00
2024-02-24T02:02:45.436Z,109.63
2024-02-24T02:05:14.652Z,112.33
2024-02-24T02:07:44.858Z,111.50
2024-02-24T02:10:14.386Z,114.90
2024-02-24T02:12:43.187Z,116.67
2024-02-24T02:15:12.481Z,109.67
2024-02-24T02:17:41.356Z,101.77
2024-02-24T02:20:10.560Z,95.30
2024-02-24T02:22:40.926Z,96.23
2024-02-24T02:25:09.933Z,88.60
2024-02-24T02:27:38.468Z,86.90
2024-02-24T02:30:08.317Z,86.00
2024-02-24T02:32:37.567Z,84.93
2024-02-24T02:35:07.648Z,91.37
2024-02-24T02:37:36.253Z,91.43
2024-02-24T02:40:06.714Z,91.50
2024-02-24T02:42:35.704Z,82.87
2024-02-24T02:45:05.026Z,84.13
2024-02-24T02:47:33.724Z,92.17
2024-02-24T02:50:02.159Z,87.67
2024-02-24T02:52:30.849Z,86.47
2024-02-24T02:54:59.130Z,91.33
2024-02-24T02:57:29.123Z,80.10
2024-02-24T02:59:57.504Z,81.83
2024-02-24T03:02:26.085Z,85.50
2024-02-24T03:04:54.586Z,81.27
2024-02-24T03:07:23.253Z,77.30
2024-02-24T03:09:52.030Z,94.90
2024-02-24T03:12:20.806Z,84.77
2024-02-24T03:14:50.584Z,79.57
2024-02-24T03:17:19.277Z,76.00
2024-02-24T03:19:47.603Z,85.63
2024-02-24T03:22:16.094Z,91.37
2024-02-24T03:24:44.409Z,79.60
2024-02-24T03:27:12.948Z,79.67
2024-02-24T03:29:41.328Z,84.27
2024-02-24T03:32:11.593Z,103.83
2024-02-24T03:34:40.578Z,105.50
2024-02-24T03:37:09.212Z,110.73
2024-02-24T03:39:39.354Z,85.00
2024-02-24T03:42:07.982Z,90.63
2024-02-24T03:44:36.354Z,95.50
2024-02-24T03:47:05.315Z,95.07
2024-02-24T03:49:35.074Z,80.87
2024-02-24T03:52:03.753Z,70.27
2024-02-24T03:54:32.024Z,100.37
2024-02-24T03:57:00.667Z,99.53
2024-02-24T03:59:29.044Z,96.23
2024-02-24T04:01:57.659Z,93.80
2024-02-24T04:04:26.168Z,94.50
2024-02-24T04:06:56.156Z,97.40
2024-02-24T04:09:24.769Z,98.00
2024-02-24T04:11:54.070Z,95.27
2024-02-24T04:14:22.675Z,97.53
2024-02-24T04:16:51.253Z,96.07
2024-02-24T04:19:19.585Z,97.57
2024-02-24T04:21:48.258Z,89.63
2024-02-24T04:24:17.861Z,93.37
2024-02-24T04:26:46.488Z,105.27
2024-02-24T04:29:14.890Z,99.13
2024-02-24T04:31:43.558Z,88.50
2024-02-24T04:34:11.907Z,84.03
2024-02-24T04:36:43.136Z,80.57
2024-02-24T04:39:11.570Z,98.60
2024-02-24T04:41:41.520Z,96.53
2024-02-24T04:44:10.006Z,91.10
2024-02-24T04:46:39.698Z,84.87
2024-02-24T04:49:09.788Z,91.00
2024-02-24T04:51:38.556Z,91.27
2024-02-24T04:54:07.060Z,108.07
2024-02-24T04:56:35.709Z,107.67
2024-02-24T04:59:05.629Z,115.07
2024-02-24T05:01:34.241Z,123.37
2024-02-24T05:04:02.607Z,118.03
2024-02-24T05:06:31.620Z,102.00
2024-02-24T05:09:00.069Z,104.07
2024-02-24T05:11:28.800Z,109.00
2024-02-24T05:13:57.167Z,95.83
2024-02-24T05:16:27.190Z,105.63
2024-02-24T05:18:55.488Z,106.40
2024-02-24T05:21:25.276Z,119.13
2024-02-24T05:23:53.551Z,117.40
2024-02-24T05:26:25.262Z,109.57
2024-02-24T05:28:53.563Z,91.03
2024-02-24T05:31:22.342Z,88.80
2024-02-24T05:33:53.729Z,99.93
2024-02-24T05:36:22.648Z,84.73
2024-02-24T05:38:50.970Z,102.17
2024-02-24T05:41:19.924Z,89.43
2024-02-24T05:43:48.237Z,114.93
2024-02-24T05:46:18.516Z,88.37
2024-02-24T05:48:47.741Z,83.00
2024-02-24T05:51:18.467Z,95.57
2024-02-24T05:53:46.803Z,95.13
2024-02-24T05:56:15.500Z,83.27
2024-02-24T05:58:43.954Z,100.63
2024-02-24T06:01:12.641Z,100.13
2024-02-24T06:03:41.213Z,82.13
2024-02-24T06:06:10.115Z,81.07
2024-02-24T06:08:39.939Z,82.90
2024-02-24T06:11:09.557Z,85.43
2024-02-24T06:13:37.938Z,89.50
2024-02-24T06:16:07.006Z,73.27
2024-02-24T06:18:35.479Z,88.93
2024-02-24T06:21:04.808Z,85.43
2024-02-24T06:23:33.206Z,90.33
2024-02-24T06:26:03.263Z,79.80
2024-02-24T06:28:31.678Z,95.67
2024-02-24T06:31:00.322Z,74.37
2024-02-24T06:33:28.856Z,81.00
2024-02-24T06:35:57.490Z,78.17
2024-02-24T06:38:25.986Z,88.80
2024-02-24T06:40:54.619Z,94.13
2024-02-24T06:43:24.327Z,82.70
2024-02-24T06:45:52.997Z,96.43
2024-02-24T06:48:21.501Z,98.97
2024-02-24T06:50:50.237Z,83.57
2024-02-24T06:53:18.595Z,82.17
2024-02-24T06:55:47.339Z,84.77
2024-02-24T06:58:15.624Z,89.80
2024-02-24T07:00:45.599Z,95.07
2024-02-24T07:03:13.998Z,82.87
2024-02-24T07:05:44.169Z,81.30
2024-02-24T07:08:12.630Z,103.70
2024-02-24T07:10:41.218Z,91.03
2024-02-24T07:13:09.629Z,95.13
2024-02-24T07:15:38.211Z,81.83
2024-02-24T07:18:08.270Z,90.30
2024-02-24T07:20:37.058Z,99.03
2024-02-24T07:23:05.718Z,75.40
2024-02-24T07:25:34.393Z,74.93
2024-02-24T07:28:02.645Z,71.37
2024-02-24T07:30:31.286Z,83.23
2024-02-24T07:32:59.776Z,92.20
2024-02-24T07:35:29.899Z,85.77
2024-02-24T07:37:58.267Z,75.27
2024-02-24T07:40:26.867Z,76.53
2024-02-24T07:42:55.977Z,75.37
2024-02-24T07:45:26.520Z,68.47
2024-02-24T07:47:55.992Z,59.90
2024-02-24T07:50:25.023Z,73.47
2024-02-24T07:52:54.872Z,69.57
2024-02-24T07:55:23.490Z,73.27
2024-02-24T07:57:51.813Z,64.90
2024-02-24T08:00:20.958Z,69.13
2024-02-24T08:02:49.392Z,60.03
2024-02-24T08:05:19.402Z,58.17
2024-02-24T08:07:47.732Z,72.90
2024-02-24T08:10:17.759Z,68.20
2024-02-24T08:12:46.125Z,66.50
2024-02-24T08:15:14.741Z,85.27
2024-02-24T08:17:43.349Z,68.53
2024-02-24T08:20:14.042Z,69.67
2024-02-24T08:22:43.557Z,68.07
2024-02-24T08:25:12.165Z,72.10
2024-02-24T08:27:41.831Z,59.73
2024-02-24T08:30:11.674Z,61.17
2024-02-24T08:32:40.113Z,53.33
2024-02-24T08:35:09.687Z,50.70
2024-02-24T08:37:38.300Z,56.50
2024-02-24T08:40:08.059Z,50.73
2024-02-24T08:42:36.475Z,68.63
2024-02-24T08:45:07.366Z,49.03
2024-02-24T08:47:36.093Z,65.63
2024-02-24T08:50:05.374Z,69.13
2024-02-24T08:52:38.895Z,53.93
2024-02-24T08:55:15.101Z,54.50
2024-02-24T08:57:43.392Z,46.00
2024-02-24T09:00:14.707Z,70.30
2024-02-24T09:02:43.197Z,58.47
2024-02-24T09:05:11.944Z,34.70
2024-02-24T09:07:40.343Z,47.57
2024-02-24T09:10:10.047Z,49.27
2024-02-24T09:12:38.358Z,43.83
2024-02-24T09:15:08.356Z,48.20
2024-02-24T09:17:38.273Z,50.47
2024-02-24T09:20:10.070Z,31.10
2024-02-24T09:22:38.633Z,47.53
2024-02-24T09:25:07.655Z,45.40
2024-02-24T09:27:35.945Z,29.27
2024-02-24T09:30:04.822Z,49.20
2024-02-24T09:32:32.257Z,38.50
2024-02-24T09:35:02.533Z,34.20
2024-02-24T09:37:30.960Z,39.37
2024-02-24T09:40:00.682Z,37.47
2024-02-24T09:42:29.954Z,46.03
2024-02-24T09:45:03.552Z,39.60
2024-02-24T09:47:32.255Z,38.57
2024-02-24T09:50:02.518Z,37.70
2024-02-24T09:52:31.238Z,57.80
2024-02-24T09:55:00.123Z,53.63
2024-02-24T09:57:31.791Z,157.33
2024-02-24T10:00:01.305Z,11.00
2024-02-24T10:02:29.972Z,166.37
2024-02-24T10:04:59.783Z,164.23
2024-02-24T10:07:30.892Z,156.47
2024-02-24T10:09:59.640Z,194.70
2024-02-24T10:12:27.972Z,284.07
2024-02-24T10:14:56.569Z,433.57
2024-02-24T10:17:25.196Z,98.53
2024-02-24T10:19:53.855Z,190.70
2024-02-24T10:22:22.128Z,56.17
2024-02-24T10:24:52.243Z,41.60
2024-02-24T10:27:21.413Z,32.93
2024-02-24T10:29:53.018Z,37.40
2024-02-24T10:32:23.463Z,28.90
2024-02-24T10:34:53.729Z,42.07
2024-02-24T10:37:22.573Z,39.23
2024-02-24T10:39:53.156Z,105.13
2024-02-24T10:42:27.381Z,172.30
2024-02-24T10:44:56.598Z,46.47
2024-02-24T10:47:25.323Z,29.63
2024-02-24T10:49:53.976Z,39.33
2024-02-24T10:52:23.549Z,35.63
2024-02-24T10:54:57.059Z,39.73
2024-02-24T10:57:25.830Z,41.27
2024-02-24T10:59:55.159Z,29.07
2024-02-24T11:02:26.040Z,37.27
2024-02-24T11:04:54.742Z,25.27
2024-02-24T11:07:24.775Z,31.97
2024-02-24T11:09:56.079Z,33.67
2024-02-24T11:12:24.663Z,38.90
2024-02-24T11:14:56.216Z,36.73
2024-02-24T11:17:50.212Z,39.97
2024-02-24T11:20:56.075Z,42.87
2024-02-24T11:23:25.802Z,33.73
2024-02-24T11:26:30.443Z,26.23
2024-02-24T11:29:04.543Z,31.70
2024-02-24T11:31:36.132Z,25.27
2024-02-24T11:34:07.054Z,35.70
2024-02-24T11:36:39.456Z,27.10
2024-02-24T11:39:10.259Z,24.83
2024-02-24T11:41:42.133Z,36.73
2024-02-24T11:44:12.107Z,38.03
2024-02-24T11:46:42.615Z,30.17
2024-02-24T11:49:12.938Z,36.30
2024-02-24T11:51:44.398Z,30.00
2024-02-24T11:54:13.067Z,38.23
2024-02-24T11:56:42.988Z,25.83
2024-02-24T11:59:11.455Z,30.87
2024-02-24T12:01:40.168Z,32.17
2024-02-24T12:04:08.518Z,21.77
2024-02-24T12:06:37.215Z,30.57
2024-02-24T12:09:05.614Z,29.03
2024-02-24T12:11:34.555Z,38.30
2024-02-24T12:14:04.230Z,26.50
2024-02-24T12:16:33.523Z,32.20
2024-02-24T12:19:05.626Z,41.20
2024-02-24T12:21:34.272Z,28.07
2024-02-24T12:24:03.152Z,29.93
2024-02-24T12:26:33.371Z,32.43
2024-02-24T12:29:05.350Z,37.93
2024-02-24T12:31:34.249Z,32.93
2024-02-24T12:34:02.636Z,32.23
2024-02-24T12:36:33.565Z,47.33
2024-02-24T12:39:02.092Z,33.47
2024-02-24T12:41:30.762Z,37.63
2024-02-24T12:43:59.089Z,25.50
2024-02-24T12:46:28.967Z,70.93
2024-02-24T12:48:57.403Z,170.63
2024-02-24T12:51:26.034Z,29.70
2024-02-24T12:53:55.643Z,30.85
2024-02-24T12:56:24.242Z,34.83
2024-02-24T12:58:52.521Z,38.15
2024-02-24T13:01:21.097Z,51.47
2024-02-24T13:03:54.597Z,45.40
2024-02-24T13:06:23.385Z,30.35
2024-02-24T13:08:51.849Z,29.50
2024-02-24T13:11:20.597Z,38.83
2024-02-24T13:13:48.907Z,54.83
2024-02-24T13:16:17.409Z,32.53
2024-02-24T13:18:45.858Z,36.30
2024-02-24T13:21:15.792Z,38.30
2024-02-24T13:23:44.277Z,51.72
2024-02-24T13:26:12.896Z,58.97
2024-02-24T13:28:41.188Z,57.97
2024-02-24T13:31:09.730Z,61.80
2024-02-24T13:33:38.240Z,81.97
2024-02-24T13:36:07.719Z,44.45
2024-02-24T13:38:37.671Z,68.60
2024-02-24T13:41:06.504Z,60.50
2024-02-24T13:43:34.743Z,61.92
2024-02-24T13:46:03.378Z,49.00
2024-02-24T13:48:31.737Z,64.15
2024-02-24T13:51:00.385Z,44.65
2024-02-24T13:53:28.691Z,82.50
2024-02-24T13:56:00.176Z,47.65
2024-02-24T13:58:28.979Z,67.32
2024-02-24T14:01:00.051Z,40.58
2024-02-24T14:03:28.636Z,38.53
2024-02-24T14:05:58.045Z,81.22
2024-02-24T14:08:26.345Z,78.80
2024-02-24T14:10:55.827Z,72.28
2024-02-24T14:13:27.128Z,70.75
2024-02-24T14:15:56.821Z,75.55
2024-02-24T14:18:25.723Z,81.95
2024-02-24T14:20:54.652Z,116.50
2024-02-24T14:23:23.006Z,122.55
2024-02-24T14:25:51.510Z,148.90
2024-02-24T14:28:19.794Z,35.25
2024-02-24T14:30:51.573Z,25.50
2024-02-24T14:33:22.200Z,32.90
2024-02-24T14:35:50.841Z,34.15
2024-02-24T14:38:19.178Z,55.78
2024-02-24T14:40:50.293Z,176.43
2024-02-24T14:43:18.703Z,24.05
2024-02-24T14:45:47.219Z,24.35
2024-02-24T14:48:17.010Z,28.10
2024-02-24T14:50:45.815Z,24.58
2024-02-24T14:53:14.213Z,20.55
2024-02-24T14:55:42.856Z,32.30
2024-02-24T14:58:13.126Z,37.00
2024-02-24T15:00:42.663Z,35.33
2024-02-24T15:03:11.733Z,27.05
2024-02-24T15:05:43.062Z,32.25
2024-02-24T15:08:11.907Z,31.63
2024-02-24T15:10:40.437Z,19.13
2024-02-24T15:13:08.855Z,33.33
2024-02-24T15:15:37.577Z,26.90
2024-02-24T15:18:06.726Z,27.95
2024-02-24T15:20:35.465Z,29.33
2024-02-24T15:23:07.448Z,30.15
2024-02-24T15:25:38.297Z,26.95
2024-02-24T15:28:07.625Z,36.97
2024-02-24T15:30:36.229Z,31.17
2024-02-24T15:33:05.301Z,24.73
2024-02-24T15:35:33.993Z,39.33
2024-02-24T15:38:02.292Z,47.97
2024-02-24T15:40:34.455Z,30.58
2024-02-24T15:43:03.669Z,32.03
2024-02-24T15:45:32.179Z,38.38
2024-02-24T15:48:00.593Z,26.17
2024-02-24T15:50:29.325Z,31.67
2024-02-24T15:52:57.745Z,37.25
2024-02-24T15:55:26.344Z,36.13
2024-02-24T15:57:55.964Z,40.28
2024-02-24T16:00:24.821Z,32.22
2024-02-24T16:02:53.177Z,18.60
2024-02-24T16:05:23.217Z,27.58
2024-02-24T16:07:51.656Z,40.70
2024-02-24T16:10:20.414Z,25.25
2024-02-24T16:12:51.596Z,25.92
2024-02-24T16:15:21.472Z,29.92
2024-02-24T16:17:49.847Z,29.02
2024-02-24T16:20:18.809Z,25.50
2024-02-24T16:22:47.187Z,30.63
2024-02-24T16:25:16.570Z,34.70
2024-02-24T16:27:45.206Z,30.05
2024-02-24T16:30:14.906Z,34.23
2024-02-24T16:32:44.806Z,28.33
2024-02-24T16:35:13.787Z,36.03
2024-02-24T16:37:42.086Z,23.87
2024-02-24T16:40:11.467Z,26.37
2024-02-24T16:42:39.889Z,29.47
2024-02-24T16:45:10.151Z,29.70
2024-02-24T16:47:39.382Z,24.50
2024-02-24T16:50:12.042Z,28.30
2024-02-24T16:52:40.572Z,34.20
2024-02-24T16:55:11.074Z,29.37
2024-02-24T16:57:40.385Z,24.57
2024-02-24T17:00:11.038Z,21.10
2024-02-24T17:02:39.649Z,37.07
2024-02-24T17:05:12.115Z,34.20
2024-02-24T17:07:40.734Z,30.27
2024-02-24T17:10:09.992Z,30.20
2024-02-24T17:12:38.533Z,33.10
2024-02-24T17:15:11.216Z,44.00
2024-02-24T17:17:40.000Z,40.43
2024-02-24T17:20:11.090Z,33.63
2024-02-24T17:22:40.554Z,30.93
2024-02-24T17:25:10.081Z,37.93
2024-02-24T17:27:39.503Z,30.80
2024-02-24T17:30:09.212Z,21.50
2024-02-24T17:32:37.872Z,30.10
2024-02-24T17:35:08.156Z,27.97
2024-02-24T17:37:39.289Z,34.37
2024-02-24T17:40:09.097Z,36.67
2024-02-24T17:42:37.350Z,38.00
2024-02-24T17:45:06.766Z,26.60
2024-02-24T17:47:35.157Z,28.90
2024-02-24T17:50:04.301Z,34.70
2024-02-24T17:52:32.678Z,24.57
2024-02-24T17:55:02.745Z,42.93
2024-02-24T17:57:31.157Z,33.07
2024-02-24T18:00:00.005Z,27.73
2024-02-24T18:02:28.493Z,30.57
2024-02-24T18:04:57.050Z,26.03
2024-02-24T18:07:26.595Z,40.27
2024-02-24T18:09:55.305Z,27.80
2024-02-24T18:12:25.105Z,33.17
2024-02-24T18:14:54.150Z,37.50
2024-02-24T18:17:22.730Z,36.23
2024-02-24T18:19:51.431Z,36.23
2024-02-24T18:22:19.662Z,32.17
2024-02-24T18:24:48.401Z,30.87
2024-02-24T18:27:16.740Z,36.27
2024-02-24T18:29:46.814Z,38.43
2024-02-24T18:32:15.187Z,29.80
2024-02-24T18:34:44.018Z,36.57
2024-02-24T18:37:12.778Z,35.53
2024-02-24T18:39:43.059Z,32.40
2024-02-24T18:42:11.383Z,37.00
2024-02-24T18:44:40.331Z,39.43
2024-02-24T18:47:10.420Z,41.37
2024-02-24T18:49:38.991Z,29.83
2024-02-24T18:52:11.119Z,31.90
2024-02-24T18:54:39.955Z,31.50
2024-02-24T18:57:08.257Z,29.40
2024-02-24T18:59:36.984Z,37.70
2024-02-24T19:02:05.967Z,26.67
2024-02-24T19:04:35.922Z,36.00
2024-02-24T19:07:04.333Z,39.43
2024-02-24T19:09:32.884Z,35.07
2024-02-24T19:12:01.259Z,33.50
2024-02-24T19:14:29.985Z,40.07
2024-02-24T19:16:58.320Z,34.17
2024-02-24T19:19:27.313Z,32.13
2024-02-24T19:21:57.412Z,32.37
2024-02-24T19:24:26.022Z,33.40
2024-02-24T19:26:54.420Z,40.03
2024-02-24T19:29:23.116Z,34.77
2024-02-24T19:31:51.433Z,39.57
2024-02-24T19:34:20.781Z,31.73
2024-02-24T19:36:49.424Z,37.90
2024-02-24T19:39:19.835Z,47.63
2024-02-24T19:41:48.274Z,42.90
2024-02-24T19:44:16.880Z,44.43
2024-02-24T19:46:45.326Z,46.20
2024-02-24T19:49:17.676Z,52.93
2024-02-24T19:51:46.152Z,46.70
2024-02-24T19:54:14.792Z,38.83
2024-02-24T19:56:44.578Z,36.20
2024-02-24T19:59:13.228Z,57.30
2024-02-24T20:01:41.636Z,54.13
2024-02-24T20:04:10.475Z,47.37
2024-02-24T20:06:39.465Z,42.83
2024-02-24T20:09:08.489Z,57.03
2024-02-24T20:11:37.161Z,56.50
2024-02-24T20:14:07.265Z,45.30
2024-02-24T20:16:35.734Z,51.17
2024-02-24T20:19:04.634Z,45.00
2024-02-24T20:21:34.055Z,42.27
2024-02-24T20:24:04.999Z,62.73
2024-02-24T20:26:33.613Z,42.73
2024-02-24T20:29:02.418Z,46.37
2024-02-24T20:31:32.036Z,51.37
2024-02-24T20:34:07.134Z,48.73
2024-02-24T20:36:37.279Z,52.77
2024-02-24T20:39:07.281Z,49.70
2024-02-24T20:41:41.923Z,36.90
2024-02-24T20:44:13.880Z,34.23
2024-02-24T20:46:46.966Z,42.43
2024-02-24T20:49:18.643Z,40.67
2024-02-24T20:51:47.083Z,45.37
2024-02-24T20:54:15.693Z,41.93
2024-02-24T20:56:44.054Z,40.50
2024-02-24T20:59:12.600Z,35.67
2024-02-24T21:01:40.926Z,39.10
2024-02-24T21:04:10.928Z,40.83
2024-02-24T21:06:39.570Z,45.20
2024-02-24T21:09:08.510Z,53.73
2024-02-24T21:11:37.057Z,38.80
2024-02-24T21:14:07.651Z,52.33
2024-02-24T21:16:37.008Z,51.00
2024-02-24T21:19:08.187Z,47.67
2024-02-24T21:21:40.409Z,41.97
2024-02-24T21:24:09.364Z,40.90
2024-02-24T21:26:38.147Z,47.00
2024-02-24T21:29:06.892Z,42.53
2024-02-24T21:31:35.946Z,46.13
2024-02-24T21:34:04.741Z,32.20
2024-02-24T21:36:33.989Z,46.93
2024-02-24T21:39:04.883Z,52.30
2024-02-24T21:41:37.431Z,46.17
2024-02-24T21:44:06.546Z,47.97
2024-02-24T21:46:35.034Z,48.27
2024-02-24T21:49:04.360Z,49.37
2024-02-24T21:51:32.748Z,35.67
2024-02-24T21:54:03.330Z,48.90
2024-02-24T21:56:35.209Z,32.90
2024-02-24T21:59:03.791Z,37.50
2024-02-24T22:01:32.151Z,48.73
2024-02-24T22:04:01.805Z,70.87
2024-02-24T22:06:30.274Z,50.93
2024-02-24T22:08:58.938Z,56.40
2024-02-24T22:11:27.350Z,54.87
2024-02-24T22:13:57.293Z,47.80
2024-02-24T22:16:27.338Z,49.73
2024-02-24T22:18:56.324Z,51.33
2024-02-24T22:21:26.723Z,61.17
2024-02-24T22:23:56.199Z,57.37
2024-02-24T22:26:25.735Z,57.30
2024-02-24T22:28:54.439Z,55.27
2024-02-24T22:31:24.307Z,67.67
2024-02-24T22:33:52.994Z,53.07
2024-02-24T22:36:23.806Z,51.93
2024-02-24T22:38:53.561Z,55.17
2024-02-24T22:41:23.437Z,45.27
2024-02-24T22:43:52.389Z,58.23
2024-02-24T22:46:21.723Z,46.03
2024-02-24T22:48:51.952Z,51.40
2024-02-24T22:51:20.596Z,43.20
2024-02-24T22:53:49.287Z,50.23
2024-02-24T22:56:17.756Z,44.00
2024-02-24T22:58:46.686Z,54.97
2024-02-24T23:01:15.976Z,48.40
2024-02-24T23:03:44.809Z,44.40
2024-02-24T23:06:14.699Z,50.07
2024-02-24T23:08:43.868Z,42.47
2024-02-24T23:11:16.694Z,52.80
2024-02-24T23:13:50.921Z,47.50
2024-02-24T23:16:19.316Z,53.30
2024-02-24T23:18:48.077Z,54.17
2024-02-24T23:21:17.867Z,63.53
2024-02-24T23:23:46.572Z,60.70
2024-02-24T23:26:15.027Z,53.97
2024-02-24T23:28:57.219Z,41.97
2024-02-24T23:31:25.533Z,53.47
2024-02-24T23:33:54.203Z,48.53
2024-02-24T23:36:23.975Z,45.33
2024-02-24T23:38:52.533Z,61.60
2024-02-24T23:41:20.967Z,47.10
2024-02-24T23:43:49.514Z,51.03
2024-02-24T23:46:18.087Z,67.43
2024-02-24T23:48:47.457Z,61.70
2024-02-24T23:51:15.983Z,60.83
2024-02-24T23:53:45.984Z,66.37
2024-02-24T23:56:21.747Z,50.47
2024-02-24T23:58:50.484Z,53.87
